sensor_id;sensor_type;location;lat;lon;timestamp;pressure;altitude;pressure_sealevel;temperature;humidity
59545;BME280;45368;55.002;-1.592;2023-03-14T00:01:08;98124.96;;;2.48;65.59
59545;BME280;45368;55.002;-1.592;2023-03-14T00:03:36;98117.18;;;2.53;66.36
59545;BME280;45368;55.002;-1.592;2023-03-14T00:06:04;98126.35;;;2.12;66.04
59545;BME280;45368;55.002;-1.592;2023-03-14T00:08:32;98124.02;;;2.68;64.17
59545;BME280;45368;55.002;-1.592;2023-03-14T00:11:04;98125.71;;;3.23;63.70
59545;BME280;45368;55.002;-1.592;2023-03-14T00:13:32;98139.59;;;2.79;64.80
59545;BME280;45368;55.002;-1.592;2023-03-14T00:16:03;98146.35;;;2.59;64.49
59545;BME280;45368;55.002;-1.592;2023-03-14T00:18:31;98157.06;;;2.25;65.21
59545;BME280;45368;55.002;-1.592;2023-03-14T00:20:59;98159.28;;;1.13;67.61
59545;BME280;45368;55.002;-1.592;2023-03-14T00:23:27;98165.65;;;2.08;66.69
59545;BME280;45368;55.002;-1.592;2023-03-14T00:25:58;98172.59;;;1.93;67.31
59545;BME280;45368;55.002;-1.592;2023-03-14T00:28:26;98175.08;;;2.31;65.78
59545;BME280;45368;55.002;-1.592;2023-03-14T00:30:54;98175.46;;;2.75;64.30
59545;BME280;45368;55.002;-1.592;2023-03-14T00:33:22;98180.15;;;2.52;64.90
59545;BME280;45368;55.002;-1.592;2023-03-14T00:35:54;98187.75;;;1.86;66.44
59545;BME280;45368;55.002;-1.592;2023-03-14T00:38:23;98191.08;;;2.58;65.20
59545;BME280;45368;55.002;-1.592;2023-03-14T00:40:49;98204.30;;;1.30;68.09
59545;BME280;45368;55.002;-1.592;2023-03-14T00:43:17;98207.94;;;2.65;65.04
59545;BME280;45368;55.002;-1.592;2023-03-14T00:45:44;98218.51;;;2.07;65.26
59545;BME280;45368;55.002;-1.592;2023-03-14T00:48:11;98223.26;;;1.83;65.44
59545;BME280;45368;55.002;-1.592;2023-03-14T00:50:38;98224.52;;;2.22;64.62
59545;BME280;45368;55.002;-1.592;2023-03-14T00:53:05;98234.31;;;1.58;65.39
59545;BME280;45368;55.002;-1.592;2023-03-14T00:55:36;98238.72;;;2.04;63.24
59545;BME280;45368;55.002;-1.592;2023-03-14T00:58:04;98246.22;;;1.76;64.90
59545;BME280;45368;55.002;-1.592;2023-03-14T01:00:31;98255.99;;;1.87;65.57
59545;BME280;45368;55.002;-1.592;2023-03-14T01:03:10;98263.15;;;2.45;63.49
59545;BME280;45368;55.002;-1.592;2023-03-14T01:05:39;98268.69;;;2.80;61.62
59545;BME280;45368;55.002;-1.592;2023-03-14T01:08:06;98271.35;;;1.78;61.25
59545;BME280;45368;55.002;-1.592;2023-03-14T01:10:37;98284.39;;;1.43;62.02
59545;BME280;45368;55.002;-1.592;2023-03-14T01:13:04;98287.18;;;1.94;61.07
59545;BME280;45368;55.002;-1.592;2023-03-14T01:15:32;98292.96;;;1.64;60.72
59545;BME280;45368;55.002;-1.592;2023-03-14T01:18:00;98300.88;;;1.61;60.64
59545;BME280;45368;55.002;-1.592;2023-03-14T01:20:28;98302.03;;;2.21;59.80
59545;BME280;45368;55.002;-1.592;2023-03-14T01:22:55;98310.44;;;2.54;59.45
59545;BME280;45368;55.002;-1.592;2023-03-14T01:25:23;98311.85;;;2.02;58.40
59545;BME280;45368;55.002;-1.592;2023-03-14T01:27:50;98326.70;;;1.68;59.55
59545;BME280;45368;55.002;-1.592;2023-03-14T01:30:17;98331.49;;;1.71;58.03
59545;BME280;45368;55.002;-1.592;2023-03-14T01:32:45;98338.62;;;1.56;59.83
59545;BME280;45368;55.002;-1.592;2023-03-14T01:35:14;98347.18;;;1.26;60.01
59545;BME280;45368;55.002;-1.592;2023-03-14T01:37:41;98353.44;;;1.17;60.56
59545;BME280;45368;55.002;-1.592;2023-03-14T01:40:11;98362.88;;;0.89;60.65
59545;BME280;45368;55.002;-1.592;2023-03-14T01:42:38;98369.30;;;1.59;59.46
59545;BME280;45368;55.002;-1.592;2023-03-14T01:46:13;98382.34;;;1.90;57.31
59545;BME280;45368;55.002;-1.592;2023-03-14T01:48:46;98394.41;;;1.98;57.92
59545;BME280;45368;55.002;-1.592;2023-03-14T01:51:16;98397.29;;;1.94;57.06
59545;BME280;45368;55.002;-1.592;2023-03-14T01:53:45;98409.38;;;2.07;56.65
59545;BME280;45368;55.002;-1.592;2023-03-14T01:56:14;98416.93;;;1.96;56.42
59545;BME280;45368;55.002;-1.592;2023-03-14T01:58:46;98416.71;;;1.47;55.60
59545;BME280;45368;55.002;-1.592;2023-03-14T02:01:19;98424.07;;;2.47;54.24
59545;BME280;45368;55.002;-1.592;2023-03-14T02:03:50;98433.17;;;1.66;55.77
59545;BME280;45368;55.002;-1.592;2023-03-14T02:06:22;98439.10;;;2.01;56.08
59545;BME280;45368;55.002;-1.592;2023-03-14T02:08:51;98446.10;;;1.70;54.85
59545;BME280;45368;55.002;-1.592;2023-03-14T02:11:19;98453.36;;;1.51;55.66
59545;BME280;45368;55.002;-1.592;2023-03-14T02:13:47;98456.70;;;1.45;55.11
59545;BME280;45368;55.002;-1.592;2023-03-14T02:16:15;98460.73;;;1.73;54.28
59545;BME280;45368;55.002;-1.592;2023-03-14T02:18:42;98470.62;;;1.45;55.65
59545;BME280;45368;55.002;-1.592;2023-03-14T02:21:16;98475.50;;;2.12;54.86
59545;BME280;45368;55.002;-1.592;2023-03-14T02:23:53;98480.59;;;1.92;53.99
59545;BME280;45368;55.002;-1.592;2023-03-14T02:26:26;98489.64;;;1.75;55.20
59545;BME280;45368;55.002;-1.592;2023-03-14T02:28:55;98498.61;;;1.19;55.72
59545;BME280;45368;55.002;-1.592;2023-03-14T02:31:22;98507.56;;;0.81;56.93
59545;BME280;45368;55.002;-1.592;2023-03-14T02:33:51;98511.50;;;0.83;57.73
59545;BME280;45368;55.002;-1.592;2023-03-14T02:36:20;98519.34;;;0.41;59.01
59545;BME280;45368;55.002;-1.592;2023-03-14T02:38:51;98524.84;;;0.48;59.15
59545;BME280;45368;55.002;-1.592;2023-03-14T02:41:22;98523.55;;;0.55;58.22
59545;BME280;45368;55.002;-1.592;2023-03-14T02:43:49;98528.27;;;1.96;57.23
59545;BME280;45368;55.002;-1.592;2023-03-14T02:46:18;98532.44;;;1.14;57.89
59545;BME280;45368;55.002;-1.592;2023-03-14T02:48:49;98549.59;;;0.40;59.06
59545;BME280;45368;55.002;-1.592;2023-03-14T02:51:18;98557.55;;;0.46;60.17
59545;BME280;45368;55.002;-1.592;2023-03-14T02:53:46;98568.55;;;0.59;59.16
59545;BME280;45368;55.002;-1.592;2023-03-14T02:56:13;98578.94;;;0.84;60.04
59545;BME280;45368;55.002;-1.592;2023-03-14T02:58:40;98584.48;;;0.40;60.87
59545;BME280;45368;55.002;-1.592;2023-03-14T03:01:07;98594.10;;;0.39;61.01
59545;BME280;45368;55.002;-1.592;2023-03-14T03:03:34;98592.40;;;0.63;59.71
59545;BME280;45368;55.002;-1.592;2023-03-14T03:06:02;98600.14;;;0.46;60.32
59545;BME280;45368;55.002;-1.592;2023-03-14T03:08:29;98609.22;;;0.61;60.05
59545;BME280;45368;55.002;-1.592;2023-03-14T03:10:58;98617.87;;;0.44;61.25
59545;BME280;45368;55.002;-1.592;2023-03-14T03:13:26;98629.70;;;0.58;60.75
59545;BME280;45368;55.002;-1.592;2023-03-14T03:15:53;98628.60;;;0.74;60.10
59545;BME280;45368;55.002;-1.592;2023-03-14T03:18:21;98637.58;;;0.04;61.19
59545;BME280;45368;55.002;-1.592;2023-03-14T03:20:48;98648.11;;;0.94;60.38
59545;BME280;45368;55.002;-1.592;2023-03-14T03:23:16;98655.90;;;0.26;62.22
59545;BME280;45368;55.002;-1.592;2023-03-14T03:25:48;98659.87;;;0.36;61.63
59545;BME280;45368;55.002;-1.592;2023-03-14T03:28:15;98665.28;;;-0.21;63.16
59545;BME280;45368;55.002;-1.592;2023-03-14T03:30:43;98668.75;;;0.04;63.01
59545;BME280;45368;55.002;-1.592;2023-03-14T03:33:11;98669.78;;;0.08;62.03
59545;BME280;45368;55.002;-1.592;2023-03-14T03:35:43;98676.22;;;0.39;61.67
59545;BME280;45368;55.002;-1.592;2023-03-14T03:38:11;98685.69;;;0.34;61.61
59545;BME280;45368;55.002;-1.592;2023-03-14T03:40:39;98687.74;;;-0.09;61.80
59545;BME280;45368;55.002;-1.592;2023-03-14T03:43:06;98697.38;;;-0.21;62.33
59545;BME280;45368;55.002;-1.592;2023-03-14T03:45:34;98703.33;;;-0.14;62.15
59545;BME280;45368;55.002;-1.592;2023-03-14T03:48:02;98706.54;;;-0.36;62.75
59545;BME280;45368;55.002;-1.592;2023-03-14T03:50:33;98710.20;;;0.06;60.96
59545;BME280;45368;55.002;-1.592;2023-03-14T03:53:00;98719.77;;;0.33;60.67
59545;BME280;45368;55.002;-1.592;2023-03-14T03:55:28;98723.18;;;-0.39;60.88
59545;BME280;45368;55.002;-1.592;2023-03-14T03:57:55;98730.02;;;0.20;59.70
59545;BME280;45368;55.002;-1.592;2023-03-14T04:00:22;98740.50;;;0.36;59.89
59545;BME280;45368;55.002;-1.592;2023-03-14T04:02:50;98748.25;;;0.41;59.64
59545;BME280;45368;55.002;-1.592;2023-03-14T04:05:17;98757.93;;;0.24;60.49
59545;BME280;45368;55.002;-1.592;2023-03-14T04:07:44;98766.56;;;-0.34;60.86
59545;BME280;45368;55.002;-1.592;2023-03-14T04:10:11;98772.36;;;-0.20;61.40
59545;BME280;45368;55.002;-1.592;2023-03-14T04:12:38;98774.91;;;-0.02;60.70
59545;BME280;45368;55.002;-1.592;2023-03-14T04:15:06;98781.88;;;0.22;60.27
59545;BME280;45368;55.002;-1.592;2023-03-14T04:17:34;98786.74;;;-0.13;60.11
59545;BME280;45368;55.002;-1.592;2023-03-14T04:20:01;98792.31;;;-0.53;60.71
59545;BME280;45368;55.002;-1.592;2023-03-14T04:22:29;98793.52;;;-0.30;60.66
59545;BME280;45368;55.002;-1.592;2023-03-14T04:24:57;98798.09;;;-0.00;59.84
59545;BME280;45368;55.002;-1.592;2023-03-14T04:27:24;98812.80;;;-0.92;63.04
59545;BME280;45368;55.002;-1.592;2023-03-14T04:29:51;98820.92;;;-0.96;62.42
59545;BME280;45368;55.002;-1.592;2023-03-14T04:32:18;98824.30;;;0.26;59.82
59545;BME280;45368;55.002;-1.592;2023-03-14T04:34:45;98839.60;;;-0.31;60.97
59545;BME280;45368;55.002;-1.592;2023-03-14T04:37:13;98848.88;;;-0.32;60.13
59545;BME280;45368;55.002;-1.592;2023-03-14T04:39:40;98847.79;;;0.35;58.35
59545;BME280;45368;55.002;-1.592;2023-03-14T04:42:07;98850.71;;;0.26;57.87
59545;BME280;45368;55.002;-1.592;2023-03-14T04:44:34;98850.83;;;0.91;57.02
59545;BME280;45368;55.002;-1.592;2023-03-14T04:47:01;98859.22;;;1.00;56.66
59545;BME280;45368;55.002;-1.592;2023-03-14T04:49:28;98865.52;;;0.60;56.70
59545;BME280;45368;55.002;-1.592;2023-03-14T04:51:56;98863.75;;;0.31;57.42
59545;BME280;45368;55.002;-1.592;2023-03-14T04:54:23;98863.72;;;1.26;56.10
59545;BME280;45368;55.002;-1.592;2023-03-14T04:56:50;98867.64;;;0.75;56.95
59545;BME280;45368;55.002;-1.592;2023-03-14T04:59:17;98869.46;;;0.92;56.57
59545;BME280;45368;55.002;-1.592;2023-03-14T05:01:44;98871.32;;;0.74;56.07
59545;BME280;45368;55.002;-1.592;2023-03-14T05:04:11;98883.16;;;0.76;56.77
59545;BME280;45368;55.002;-1.592;2023-03-14T05:06:38;98890.60;;;0.42;57.94
59545;BME280;45368;55.002;-1.592;2023-03-14T05:09:05;98904.49;;;-0.18;59.22
59545;BME280;45368;55.002;-1.592;2023-03-14T05:11:32;98906.08;;;-0.32;59.79
59545;BME280;45368;55.002;-1.592;2023-03-14T05:13:59;98904.32;;;-0.74;60.45
59545;BME280;45368;55.002;-1.592;2023-03-14T05:16:26;98916.51;;;-0.75;60.90
59545;BME280;45368;55.002;-1.592;2023-03-14T05:18:53;98918.98;;;-0.08;60.02
59545;BME280;45368;55.002;-1.592;2023-03-14T05:21:20;98933.08;;;-0.48;60.53
59545;BME280;45368;55.002;-1.592;2023-03-14T05:23:47;98935.58;;;-0.62;60.90
59545;BME280;45368;55.002;-1.592;2023-03-14T05:26:14;98942.92;;;-0.60;60.67
59545;BME280;45368;55.002;-1.592;2023-03-14T05:28:41;98942.97;;;-0.04;59.05
59545;BME280;45368;55.002;-1.592;2023-03-14T05:31:09;98932.87;;;1.30;56.01
59545;BME280;45368;55.002;-1.592;2023-03-14T05:33:36;98943.78;;;0.82;55.98
59545;BME280;45368;55.002;-1.592;2023-03-14T05:36:05;98943.66;;;0.91;54.74
59545;BME280;45368;55.002;-1.592;2023-03-14T05:38:33;98942.09;;;1.58;54.42
59545;BME280;45368;55.002;-1.592;2023-03-14T05:41:01;98945.84;;;0.50;55.74
59545;BME280;45368;55.002;-1.592;2023-03-14T05:43:29;98947.84;;;0.89;55.62
59545;BME280;45368;55.002;-1.592;2023-03-14T05:45:57;98948.21;;;1.61;54.10
59545;BME280;45368;55.002;-1.592;2023-03-14T05:48:24;98957.75;;;1.32;53.35
59545;BME280;45368;55.002;-1.592;2023-03-14T05:50:54;98963.04;;;1.11;53.71
59545;BME280;45368;55.002;-1.592;2023-03-14T05:53:22;98965.14;;;1.16;54.41
59545;BME280;45368;55.002;-1.592;2023-03-14T05:55:51;98964.74;;;1.48;53.10
59545;BME280;45368;55.002;-1.592;2023-03-14T05:58:18;98968.56;;;1.79;53.43
59545;BME280;45368;55.002;-1.592;2023-03-14T06:00:45;98969.88;;;0.80;54.97
59545;BME280;45368;55.002;-1.592;2023-03-14T06:03:13;98973.84;;;1.51;54.37
59545;BME280;45368;55.002;-1.592;2023-03-14T06:05:40;98980.14;;;1.95;53.62
59545;BME280;45368;55.002;-1.592;2023-03-14T06:08:07;98980.73;;;2.11;52.78
59545;BME280;45368;55.002;-1.592;2023-03-14T06:10:35;98983.74;;;2.17;52.22
59545;BME280;45368;55.002;-1.592;2023-03-14T06:13:03;98991.11;;;1.39;54.58
59545;BME280;45368;55.002;-1.592;2023-03-14T06:15:30;98996.09;;;1.63;53.47
59545;BME280;45368;55.002;-1.592;2023-03-14T06:17:57;99000.36;;;1.35;53.81
59545;BME280;45368;55.002;-1.592;2023-03-14T06:20:25;99006.42;;;1.33;54.44
59545;BME280;45368;55.002;-1.592;2023-03-14T06:22:52;99006.34;;;1.77;53.79
59545;BME280;45368;55.002;-1.592;2023-03-14T06:25:18;99011.03;;;1.30;53.07
59545;BME280;45368;55.002;-1.592;2023-03-14T06:27:45;99020.99;;;1.05;55.67
59545;BME280;45368;55.002;-1.592;2023-03-14T06:30:13;99021.53;;;2.02;52.17
59545;BME280;45368;55.002;-1.592;2023-03-14T06:32:40;99029.89;;;1.29;54.47
59545;BME280;45368;55.002;-1.592;2023-03-14T06:35:08;99047.25;;;0.74;55.03
59545;BME280;45368;55.002;-1.592;2023-03-14T06:37:35;99057.28;;;1.25;54.02
59545;BME280;45368;55.002;-1.592;2023-03-14T06:40:02;99064.38;;;1.18;54.36
59545;BME280;45368;55.002;-1.592;2023-03-14T06:42:30;99068.74;;;0.75;55.63
59545;BME280;45368;55.002;-1.592;2023-03-14T06:44:57;99073.72;;;1.04;55.07
59545;BME280;45368;55.002;-1.592;2023-03-14T06:47:25;99080.09;;;1.09;54.37
59545;BME280;45368;55.002;-1.592;2023-03-14T06:49:52;99087.39;;;1.87;53.43
59545;BME280;45368;55.002;-1.592;2023-03-14T06:52:20;99090.71;;;1.54;52.71
59545;BME280;45368;55.002;-1.592;2023-03-14T06:54:47;99096.66;;;1.67;53.87
59545;BME280;45368;55.002;-1.592;2023-03-14T06:57:14;99102.91;;;1.26;53.14
59545;BME280;45368;55.002;-1.592;2023-03-14T06:59:42;99111.30;;;1.76;52.43
59545;BME280;45368;55.002;-1.592;2023-03-14T07:02:15;99115.58;;;2.13;51.60
59545;BME280;45368;55.002;-1.592;2023-03-14T07:04:43;99117.28;;;1.88;52.88
59545;BME280;45368;55.002;-1.592;2023-03-14T07:07:10;99121.54;;;1.35;52.67
59545;BME280;45368;55.002;-1.592;2023-03-14T07:09:38;99125.72;;;1.59;52.34
59545;BME280;45368;55.002;-1.592;2023-03-14T07:12:06;99129.87;;;1.91;51.90
59545;BME280;45368;55.002;-1.592;2023-03-14T07:14:34;99134.90;;;1.43;53.37
59545;BME280;45368;55.002;-1.592;2023-03-14T07:17:06;99140.55;;;1.57;53.14
59545;BME280;45368;55.002;-1.592;2023-03-14T07:19:33;99142.59;;;1.76;52.66
59545;BME280;45368;55.002;-1.592;2023-03-14T07:22:00;99139.22;;;1.96;52.95
59545;BME280;45368;55.002;-1.592;2023-03-14T07:24:27;99142.08;;;0.62;55.49
59545;BME280;45368;55.002;-1.592;2023-03-14T07:26:54;99145.68;;;1.62;53.79
59545;BME280;45368;55.002;-1.592;2023-03-14T07:29:22;99149.70;;;2.41;52.39
59545;BME280;45368;55.002;-1.592;2023-03-14T07:31:49;99153.72;;;2.79;50.73
59545;BME280;45368;55.002;-1.592;2023-03-14T07:34:17;99165.32;;;1.67;52.80
59545;BME280;45368;55.002;-1.592;2023-03-14T07:36:44;99167.51;;;1.87;51.71
59545;BME280;45368;55.002;-1.592;2023-03-14T07:39:11;99173.74;;;0.97;53.59
59545;BME280;45368;55.002;-1.592;2023-03-14T07:41:39;99179.24;;;1.32;54.23
59545;BME280;45368;55.002;-1.592;2023-03-14T07:44:06;99182.91;;;0.73;55.75
59545;BME280;45368;55.002;-1.592;2023-03-14T07:46:34;99187.53;;;1.25;54.56
59545;BME280;45368;55.002;-1.592;2023-03-14T07:49:01;99192.92;;;1.46;53.92
59545;BME280;45368;55.002;-1.592;2023-03-14T07:51:28;99194.78;;;0.64;56.29
59545;BME280;45368;55.002;-1.592;2023-03-14T07:53:56;99193.46;;;1.19;53.93
59545;BME280;45368;55.002;-1.592;2023-03-14T07:56:24;99195.04;;;1.54;54.27
59545;BME280;45368;55.002;-1.592;2023-03-14T07:58:51;99198.16;;;1.68;52.49
59545;BME280;45368;55.002;-1.592;2023-03-14T08:01:18;99197.51;;;2.35;50.83
59545;BME280;45368;55.002;-1.592;2023-03-14T08:03:46;99198.73;;;1.82;51.06
59545;BME280;45368;55.002;-1.592;2023-03-14T08:06:13;99200.98;;;2.43;51.14
59545;BME280;45368;55.002;-1.592;2023-03-14T08:08:40;99201.93;;;2.44;51.63
59545;BME280;45368;55.002;-1.592;2023-03-14T08:11:07;99207.95;;;2.40;50.69
59545;BME280;45368;55.002;-1.592;2023-03-14T08:13:35;99212.94;;;2.01;52.53
59545;BME280;45368;55.002;-1.592;2023-03-14T08:16:03;99209.64;;;1.88;52.54
59545;BME280;45368;55.002;-1.592;2023-03-14T08:18:30;99210.89;;;1.90;52.80
59545;BME280;45368;55.002;-1.592;2023-03-14T08:20:58;99210.31;;;2.28;51.85
59545;BME280;45368;55.002;-1.592;2023-03-14T08:23:25;99206.85;;;1.56;54.10
59545;BME280;45368;55.002;-1.592;2023-03-14T08:25:52;99216.39;;;1.39;54.94
59545;BME280;45368;55.002;-1.592;2023-03-14T08:28:19;99222.95;;;0.78;56.27
59545;BME280;45368;55.002;-1.592;2023-03-14T08:30:46;99226.16;;;1.10;55.65
59545;BME280;45368;55.002;-1.592;2023-03-14T08:33:13;99225.21;;;1.29;55.81
59545;BME280;45368;55.002;-1.592;2023-03-14T08:35:41;99227.96;;;1.64;54.09
59545;BME280;45368;55.002;-1.592;2023-03-14T08:38:08;99229.02;;;1.06;54.45
59545;BME280;45368;55.002;-1.592;2023-03-14T08:40:35;99221.75;;;1.17;54.82
59545;BME280;45368;55.002;-1.592;2023-03-14T08:43:02;99225.37;;;1.37;54.50
59545;BME280;45368;55.002;-1.592;2023-03-14T08:45:30;99224.18;;;1.07;55.78
59545;BME280;45368;55.002;-1.592;2023-03-14T08:47:58;99231.83;;;0.90;55.08
59545;BME280;45368;55.002;-1.592;2023-03-14T08:50:25;99234.86;;;1.61;54.79
59545;BME280;45368;55.002;-1.592;2023-03-14T08:52:52;99237.10;;;1.08;54.82
59545;BME280;45368;55.002;-1.592;2023-03-14T08:55:19;99240.78;;;1.26;55.51
59545;BME280;45368;55.002;-1.592;2023-03-14T08:57:47;99239.26;;;0.82;56.18
59545;BME280;45368;55.002;-1.592;2023-03-14T09:00:47;99237.30;;;1.27;54.68
59545;BME280;45368;55.002;-1.592;2023-03-14T09:03:14;99247.55;;;1.09;54.36
59545;BME280;45368;55.002;-1.592;2023-03-14T09:05:41;99241.66;;;2.32;51.81
59545;BME280;45368;55.002;-1.592;2023-03-14T09:08:08;99253.19;;;1.81;53.69
59545;BME280;45368;55.002;-1.592;2023-03-14T09:10:36;99257.66;;;2.27;52.17
59545;BME280;45368;55.002;-1.592;2023-03-14T09:13:03;99279.20;;;1.51;54.12
59545;BME280;45368;55.002;-1.592;2023-03-14T09:15:30;99275.89;;;1.34;55.39
59545;BME280;45368;55.002;-1.592;2023-03-14T09:17:58;99288.58;;;2.03;50.93
59545;BME280;45368;55.002;-1.592;2023-03-14T09:20:25;99298.88;;;1.34;53.09
59545;BME280;45368;55.002;-1.592;2023-03-14T09:22:53;99301.13;;;1.83;53.95
59545;BME280;45368;55.002;-1.592;2023-03-14T09:25:20;99295.42;;;1.49;53.30
59545;BME280;45368;55.002;-1.592;2023-03-14T09:27:47;99295.95;;;1.95;53.17
59545;BME280;45368;55.002;-1.592;2023-03-14T09:30:15;99299.79;;;1.71;53.01
59545;BME280;45368;55.002;-1.592;2023-03-14T09:32:42;99303.45;;;1.51;52.93
59545;BME280;45368;55.002;-1.592;2023-03-14T09:35:09;99305.76;;;2.18;53.30
59545;BME280;45368;55.002;-1.592;2023-03-14T09:37:37;99311.27;;;2.23;52.59
59545;BME280;45368;55.002;-1.592;2023-03-14T09:40:05;99308.39;;;2.22;51.87
59545;BME280;45368;55.002;-1.592;2023-03-14T09:42:32;99298.22;;;2.23;51.24
59545;BME280;45368;55.002;-1.592;2023-03-14T09:45:01;99311.54;;;2.10;52.49
59545;BME280;45368;55.002;-1.592;2023-03-14T09:47:29;99312.14;;;1.74;52.37
59545;BME280;45368;55.002;-1.592;2023-03-14T09:49:57;99319.40;;;1.92;52.44
59545;BME280;45368;55.002;-1.592;2023-03-14T09:52:28;99334.18;;;2.27;51.18
59545;BME280;45368;55.002;-1.592;2023-03-14T09:55:00;99332.77;;;1.87;51.38
59545;BME280;45368;55.002;-1.592;2023-03-14T09:57:30;99317.29;;;1.89;48.60
59545;BME280;45368;55.002;-1.592;2023-03-14T10:00:03;99331.04;;;2.11;49.41
59545;BME280;45368;55.002;-1.592;2023-03-14T10:02:34;99330.92;;;2.30;49.48
59545;BME280;45368;55.002;-1.592;2023-03-14T10:05:13;99345.90;;;2.26;50.46
59545;BME280;45368;55.002;-1.592;2023-03-14T10:07:40;99349.06;;;2.01;50.73
59545;BME280;45368;55.002;-1.592;2023-03-14T10:10:11;99356.23;;;1.73;50.57
59545;BME280;45368;55.002;-1.592;2023-03-14T10:12:40;99364.80;;;1.78;51.91
59545;BME280;45368;55.002;-1.592;2023-03-14T10:15:11;99368.56;;;1.34;52.51
59545;BME280;45368;55.002;-1.592;2023-03-14T10:17:47;99368.75;;;1.84;51.65
59545;BME280;45368;55.002;-1.592;2023-03-14T10:20:28;99362.38;;;2.60;49.71
59545;BME280;45368;55.002;-1.592;2023-03-14T10:23:01;99365.34;;;1.60;50.31
59545;BME280;45368;55.002;-1.592;2023-03-14T10:25:31;99361.45;;;2.16;49.84
59545;BME280;45368;55.002;-1.592;2023-03-14T10:27:59;99365.43;;;2.17;50.84
59545;BME280;45368;55.002;-1.592;2023-03-14T10:30:34;99368.57;;;2.80;49.58
59545;BME280;45368;55.002;-1.592;2023-03-14T10:33:10;99381.68;;;2.45;48.90
59545;BME280;45368;55.002;-1.592;2023-03-14T10:35:38;99394.94;;;2.74;48.17
59545;BME280;45368;55.002;-1.592;2023-03-14T10:38:11;99398.09;;;2.44;49.42
59545;BME280;45368;55.002;-1.592;2023-03-14T10:40:40;99402.54;;;2.47;49.36
59545;BME280;45368;55.002;-1.592;2023-03-14T10:43:16;99413.09;;;1.97;49.30
59545;BME280;45368;55.002;-1.592;2023-03-14T10:45:44;99412.76;;;1.80;49.62
59545;BME280;45368;55.002;-1.592;2023-03-14T10:48:21;99414.48;;;2.03;49.68
59545;BME280;45368;55.002;-1.592;2023-03-14T10:50:54;99427.34;;;1.88;49.47
59545;BME280;45368;55.002;-1.592;2023-03-14T10:53:23;99432.18;;;2.35;50.37
59545;BME280;45368;55.002;-1.592;2023-03-14T10:55:50;99433.41;;;2.71;47.63
59545;BME280;45368;55.002;-1.592;2023-03-14T10:58:24;99441.32;;;2.93;49.37
59545;BME280;45368;55.002;-1.592;2023-03-14T11:00:59;99436.21;;;3.90;46.48
59545;BME280;45368;55.002;-1.592;2023-03-14T11:03:32;99436.97;;;4.85;45.33
59545;BME280;45368;55.002;-1.592;2023-03-14T11:06:06;99446.37;;;4.15;45.73
59545;BME280;45368;55.002;-1.592;2023-03-14T11:08:42;99451.42;;;3.69;46.20
59545;BME280;45368;55.002;-1.592;2023-03-14T11:11:18;99447.38;;;3.27;47.33
59545;BME280;45368;55.002;-1.592;2023-03-14T11:13:54;99464.65;;;3.39;46.57
59545;BME280;45368;55.002;-1.592;2023-03-14T11:16:28;99468.95;;;2.91;47.34
59545;BME280;45368;55.002;-1.592;2023-03-14T11:20:14;99466.56;;;2.81;48.12
59545;BME280;45368;55.002;-1.592;2023-03-14T11:22:50;99467.30;;;2.76;49.09
59545;BME280;45368;55.002;-1.592;2023-03-14T11:25:26;99470.54;;;2.31;48.80
59545;BME280;45368;55.002;-1.592;2023-03-14T11:28:13;99470.53;;;1.97;49.11
59545;BME280;45368;55.002;-1.592;2023-03-14T11:30:49;99470.68;;;2.79;50.57
59545;BME280;45368;55.002;-1.592;2023-03-14T11:33:23;99476.54;;;2.13;52.22
59545;BME280;45368;55.002;-1.592;2023-03-14T11:35:58;99469.83;;;1.99;54.64
59545;BME280;45368;55.002;-1.592;2023-03-14T11:38:31;99469.47;;;2.89;52.36
59545;BME280;45368;55.002;-1.592;2023-03-14T11:41:01;99470.19;;;3.03;51.07
59545;BME280;45368;55.002;-1.592;2023-03-14T11:43:30;99471.27;;;3.05;50.75
59545;BME280;45368;55.002;-1.592;2023-03-14T11:46:05;99459.51;;;3.05;49.90
59545;BME280;45368;55.002;-1.592;2023-03-14T11:48:40;99456.72;;;4.12;47.92
59545;BME280;45368;55.002;-1.592;2023-03-14T11:51:16;99464.45;;;4.04;47.72
59545;BME280;45368;55.002;-1.592;2023-03-14T11:53:58;99478.67;;;4.80;47.70
59545;BME280;45368;55.002;-1.592;2023-03-14T11:56:33;99482.66;;;3.99;49.30
59545;BME280;45368;55.002;-1.592;2023-03-14T11:59:05;99486.48;;;3.39;50.44
59545;BME280;45368;55.002;-1.592;2023-03-14T12:01:45;99485.97;;;3.92;49.66
59545;BME280;45368;55.002;-1.592;2023-03-14T12:04:22;99491.82;;;3.46;49.65
59545;BME280;45368;55.002;-1.592;2023-03-14T12:06:52;99504.54;;;3.66;49.84
59545;BME280;45368;55.002;-1.592;2023-03-14T12:09:20;99500.42;;;3.23;51.19
59545;BME280;45368;55.002;-1.592;2023-03-14T12:11:50;99512.46;;;2.87;50.49
59545;BME280;45368;55.002;-1.592;2023-03-14T12:14:22;99516.14;;;2.47;51.86
59545;BME280;45368;55.002;-1.592;2023-03-14T12:16:54;99512.18;;;2.38;52.37
59545;BME280;45368;55.002;-1.592;2023-03-14T12:19:30;99524.80;;;2.46;52.25
59545;BME280;45368;55.002;-1.592;2023-03-14T12:22:07;99517.10;;;2.98;50.27
59545;BME280;45368;55.002;-1.592;2023-03-14T12:24:36;99520.92;;;2.93;49.84
59545;BME280;45368;55.002;-1.592;2023-03-14T12:27:06;99529.64;;;2.78;50.58
59545;BME280;45368;55.002;-1.592;2023-03-14T12:30:00;99527.01;;;3.08;49.50
59545;BME280;45368;55.002;-1.592;2023-03-14T12:32:28;99525.39;;;3.50;49.43
59545;BME280;45368;55.002;-1.592;2023-03-14T12:34:55;99522.37;;;3.96;48.43
59545;BME280;45368;55.002;-1.592;2023-03-14T12:37:28;99521.20;;;3.86;47.17
59545;BME280;45368;55.002;-1.592;2023-03-14T12:40:09;99527.54;;;3.51;47.99
59545;BME280;45368;55.002;-1.592;2023-03-14T12:42:43;99533.17;;;3.07;48.17
59545;BME280;45368;55.002;-1.592;2023-03-14T12:45:23;99530.78;;;3.48;48.88
59545;BME280;45368;55.002;-1.592;2023-03-14T12:47:54;99526.51;;;3.60;47.03
59545;BME280;45368;55.002;-1.592;2023-03-14T12:50:27;99537.79;;;3.63;48.52
59545;BME280;45368;55.002;-1.592;2023-03-14T12:53:18;99539.80;;;3.28;47.75
59545;BME280;45368;55.002;-1.592;2023-03-14T12:55:54;99543.47;;;3.78;49.52
59545;BME280;45368;55.002;-1.592;2023-03-14T12:58:30;99538.08;;;3.31;51.21
59545;BME280;45368;55.002;-1.592;2023-03-14T13:01:01;99537.85;;;4.20;48.87
59545;BME280;45368;55.002;-1.592;2023-03-14T13:03:39;99545.15;;;3.18;49.60
59545;BME280;45368;55.002;-1.592;2023-03-14T13:06:10;99549.72;;;3.32;50.88
59545;BME280;45368;55.002;-1.592;2023-03-14T13:08:40;99538.47;;;4.21;48.59
59545;BME280;45368;55.002;-1.592;2023-03-14T13:11:10;99542.15;;;4.45;49.07
59545;BME280;45368;55.002;-1.592;2023-03-14T13:13:45;99537.69;;;3.85;50.16